Terminal Aerodrome Forecast
Issued by NWS Wakefield, VA

Home | Current Version | Previous Version | Text Only | Print | Product List | Glossary On
Versions: 1 2 3 4 5 6 7 8 9 10 11 12 13 14 15 16 17 18 19 20 21 22 23 24 25
754
FTUS41 KAKQ 302335
TAFSBY
TAF
KSBY 302335Z 0100/0124 08008KT P6SM OVC040
      TEMPO 0101/0104 6SM -RA BR BKN020
     FM010400 09003KT 5SM -RA BR OVC025
     FM010700 11004KT 4SM -RA BR OVC009
     FM011100 13005KT 3SM BR OVC007
     FM011900 20012KT P6SM -SHRA SCT010 BKN025=

USA.gov is the U.S. government's official web portal to all federal, state and local government web resources and services.